createdAt,value
2018-12-09T00:00:30.667Z,11.01
2018-12-09T00:01:30.655Z,11.02
2018-12-09T00:02:30.646Z,11.02
2018-12-09T00:03:30.646Z,11.02
2018-12-09T00:04:30.636Z,11.05
2018-12-09T00:05:30.622Z,11.03
2018-12-09T00:06:30.614Z,11.03
2018-12-09T00:07:30.607Z,11.02
2018-12-09T00:08:30.598Z,11.12
2018-12-09T00:09:30.596Z,11.03
2018-12-09T00:10:30.587Z,11.06
2018-12-09T00:11:30.581Z,11.05
2018-12-09T00:12:30.570Z,11.11
2018-12-09T00:13:30.557Z,11.06
2018-12-09T00:14:30.551Z,11.12
2018-12-09T00:15:30.544Z,11.11
2018-12-09T00:16:30.534Z,11.01
2018-12-09T00:17:30.531Z,11.03
2018-12-09T00:18:30.523Z,10.94
2018-12-09T00:19:30.511Z,10.91
2018-12-09T00:20:30.502Z,10.90
2018-12-09T00:21:30.500Z,10.87
2018-12-09T00:22:30.492Z,10.93
2018-12-09T00:23:30.483Z,10.87
2018-12-09T00:24:30.476Z,10.80
2018-12-09T00:25:30.464Z,10.87
2018-12-09T00:26:30.455Z,10.87
2018-12-09T00:27:30.449Z,10.93
2018-12-09T00:28:30.441Z,10.94
2018-12-09T00:29:30.436Z,10.95
2018-12-09T00:30:30.431Z,11.02
2018-12-09T00:31:30.423Z,11.02
2018-12-09T00:32:30.412Z,10.93
2018-12-09T00:33:30.402Z,11.03
2018-12-09T00:34:30.393Z,11.02
2018-12-09T00:35:30.389Z,10.99
2018-12-09T00:36:30.381Z,11.02
2018-12-09T00:37:30.369Z,11.05
2018-12-09T00:38:30.360Z,11.06
2018-12-09T00:39:30.354Z,11.12
2018-12-09T00:40:30.344Z,11.09
2018-12-09T00:41:30.341Z,11.05
2018-12-09T00:42:30.335Z,11.05
2018-12-09T00:43:30.327Z,11.11
2018-12-09T00:44:30.319Z,11.11
2018-12-09T00:45:30.306Z,11.11
2018-12-09T00:46:30.299Z,11.09
2018-12-09T00:47:30.291Z,11.03
2018-12-09T00:48:30.282Z,11.06
2018-12-09T00:49:30.281Z,11.11
2018-12-09T00:50:30.273Z,11.06
2018-12-09T00:51:30.261Z,11.03
2018-12-09T00:52:30.252Z,11.06
2018-12-09T00:53:30.250Z,11.16
2018-12-09T00:54:30.243Z,11.05
2018-12-09T00:55:30.235Z,11.02
2018-12-09T00:56:30.232Z,10.91
2018-12-09T00:57:30.215Z,10.95
2018-12-09T00:58:30.207Z,10.95
2018-12-09T00:59:30.199Z,11.01
2018-12-09T01:00:30.191Z,10.98
2018-12-09T01:01:30.190Z,10.95
2018-12-09T01:02:30.180Z,11.02
2018-12-09T01:03:30.171Z,11.01
2018-12-09T01:04:30.163Z,11.03
2018-12-09T01:05:30.153Z,10.99
2018-12-09T01:06:30.143Z,10.93
2018-12-09T01:07:30.140Z,11.02
2018-12-09T01:08:30.132Z,10.94
2018-12-09T01:09:30.121Z,10.90
2018-12-09T01:10:30.113Z,10.84
2018-12-09T01:11:30.105Z,10.90
2018-12-09T01:12:30.097Z,10.87
2018-12-09T01:13:30.094Z,10.90
2018-12-09T01:14:30.087Z,10.88
2018-12-09T01:15:30.079Z,10.90
2018-12-09T01:16:30.071Z,10.72
2018-12-09T01:17:30.058Z,10.70
2018-12-09T01:18:30.053Z,10.73
2018-12-09T01:19:30.044Z,10.69
2018-12-09T01:20:30.035Z,10.72
2018-12-09T01:21:30.035Z,10.63
2018-12-09T01:22:30.023Z,10.60
2018-12-09T01:23:30.012Z,10.65
2018-12-09T01:24:30.003Z,10.65
2018-12-09T01:25:30.001Z,10.57
2018-12-09T01:26:29.993Z,10.52
2018-12-09T01:27:29.986Z,10.58
2018-12-09T01:28:29.978Z,10.57
2018-12-09T01:29:29.964Z,10.55
2018-12-09T01:30:29.957Z,10.51
2018-12-09T01:31:29.949Z,10.58
2018-12-09T01:32:29.940Z,10.49
2018-12-09T01:33:29.944Z,10.35
2018-12-09T01:34:29.931Z,10.17
2018-12-09T01:35:29.921Z,9.96
2018-12-09T01:36:29.913Z,9.78
2018-12-09T01:37:29.901Z,9.74
2018-12-09T01:38:29.893Z,9.74
2018-12-09T01:39:29.891Z,9.65
2018-12-09T01:40:29.881Z,9.62
2018-12-09T01:41:29.871Z,9.59
2018-12-09T01:42:29.861Z,9.50
2018-12-09T01:43:29.854Z,9.52
2018-12-09T01:44:29.845Z,9.50
2018-12-09T01:45:29.842Z,9.53
2018-12-09T01:46:29.835Z,9.52
2018-12-09T01:47:29.826Z,9.45
2018-12-09T01:48:29.819Z,9.50
2018-12-09T01:49:29.806Z,9.48
2018-12-09T01:50:29.797Z,9.56
2018-12-09T01:51:29.788Z,9.62
2018-12-09T01:52:29.782Z,9.62
2018-12-09T01:53:29.775Z,9.67
2018-12-09T01:54:29.773Z,9.70
2018-12-09T01:55:29.756Z,9.70
2018-12-09T01:56:29.748Z,9.65
2018-12-09T01:57:29.745Z,9.71
2018-12-09T01:58:29.798Z,9.83
2018-12-09T01:59:29.728Z,9.74
2018-12-09T02:00:29.720Z,9.86
2018-12-09T02:01:29.711Z,9.86
2018-12-09T02:02:29.698Z,9.91
2018-12-09T02:03:29.693Z,9.93
2018-12-09T02:04:29.682Z,9.91
2018-12-09T02:05:29.681Z,9.86
2018-12-09T02:06:29.671Z,9.92
2018-12-09T02:07:29.663Z,9.93
2018-12-09T02:08:29.654Z,9.96
2018-12-09T02:09:29.643Z,9.99
2018-12-09T02:10:29.633Z,9.98
2018-12-09T02:11:29.631Z,9.98
2018-12-09T02:12:29.621Z,9.99
2018-12-09T02:13:29.608Z,10.06
2018-12-09T02:14:29.600Z,10.10
2018-12-09T02:15:29.592Z,10.06
2018-12-09T02:16:29.590Z,9.98
2018-12-09T02:17:29.579Z,9.99
2018-12-09T02:18:29.571Z,10.04
2018-12-09T02:19:29.564Z,9.98
2018-12-09T02:20:29.555Z,10.02
2018-12-09T02:21:29.544Z,10.04
2018-12-09T02:22:29.534Z,10.04
2018-12-09T02:23:29.527Z,9.98
2018-12-09T02:24:29.517Z,9.95
2018-12-09T02:25:29.515Z,9.93
2018-12-09T02:26:29.506Z,10.02
2018-12-09T02:27:29.500Z,9.95
2018-12-09T02:28:29.484Z,9.89
2018-12-09T02:29:29.482Z,9.91
2018-12-09T02:30:29.473Z,9.91
2018-12-09T02:31:29.465Z,9.92
2018-12-09T02:32:29.455Z,9.92
2018-12-09T02:33:29.443Z,9.81
2018-12-09T02:34:29.436Z,9.89
2018-12-09T02:35:29.431Z,9.92
2018-12-09T02:36:29.420Z,9.92
2018-12-09T02:37:29.415Z,9.77
2018-12-09T02:38:29.407Z,9.89
2018-12-09T02:39:29.399Z,9.77
2018-12-09T02:40:29.390Z,9.89
2018-12-09T02:41:29.378Z,9.86
2018-12-09T02:42:29.369Z,9.88
2018-12-09T02:43:29.366Z,9.85
2018-12-09T02:44:29.357Z,9.78
2018-12-09T02:45:29.344Z,9.75
2018-12-09T02:46:29.337Z,9.71
2018-12-09T02:47:29.497Z,9.77
2018-12-09T02:48:29.318Z,9.71
2018-12-09T02:49:29.314Z,9.67
2018-12-09T02:50:29.306Z,9.60
2018-12-09T02:51:29.299Z,9.63
2018-12-09T02:52:29.290Z,9.62
2018-12-09T02:53:29.277Z,9.62
2018-12-09T02:54:29.270Z,9.49
2018-12-09T02:55:29.261Z,9.52
2018-12-09T02:56:29.251Z,9.49
2018-12-09T02:57:29.252Z,9.50
2018-12-09T02:58:29.280Z,9.42
2018-12-09T02:59:29.228Z,9.53
2018-12-09T03:00:29.219Z,9.58
2018-12-09T03:01:29.216Z,9.44
2018-12-09T03:02:29.207Z,9.48
2018-12-09T03:03:29.200Z,9.52
2018-12-09T03:04:29.188Z,9.48
2018-12-09T03:05:29.176Z,9.42
2018-12-09T03:06:29.167Z,9.50
2018-12-09T03:07:29.161Z,9.42
2018-12-09T03:08:29.150Z,9.48
2018-12-09T03:09:29.147Z,9.49
2018-12-09T03:10:29.140Z,9.52
2018-12-09T03:11:29.130Z,9.50
2018-12-09T03:12:29.120Z,9.56
2018-12-09T03:13:29.108Z,9.55
2018-12-09T03:14:29.100Z,9.56
2018-12-09T03:15:29.098Z,9.55
2018-12-09T03:16:29.086Z,9.49
2018-12-09T03:17:29.073Z,9.50
2018-12-09T03:18:29.067Z,9.45
2018-12-09T03:19:29.060Z,9.59
2018-12-09T03:20:29.049Z,9.55
2018-12-09T03:21:29.045Z,9.62
2018-12-09T03:22:29.036Z,9.67
2018-12-09T03:23:29.029Z,9.70
2018-12-09T03:24:29.022Z,9.67
2018-12-09T03:25:29.007Z,9.68
2018-12-09T03:26:28.999Z,9.65
2018-12-09T03:27:28.990Z,9.71
2018-12-09T03:28:28.982Z,9.67
2018-12-09T03:29:28.978Z,9.75
2018-12-09T03:30:28.974Z,9.74
2018-12-09T03:31:28.966Z,9.70
2018-12-09T03:32:28.956Z,9.74
2018-12-09T03:33:28.944Z,9.73
2018-12-09T03:34:28.936Z,9.83
2018-12-09T03:35:28.928Z,9.85
2018-12-09T03:36:28.918Z,9.92
2018-12-09T03:37:28.906Z,9.92
2018-12-09T03:38:28.898Z,9.92
2018-12-09T03:39:28.892Z,9.80
2018-12-09T03:40:28.880Z,9.86
2018-12-09T03:41:28.879Z,9.80
2018-12-09T03:42:28.870Z,9.77
2018-12-09T03:43:28.862Z,9.74
2018-12-09T03:44:28.864Z,9.71
2018-12-09T03:45:28.839Z,9.74
2018-12-09T03:46:28.835Z,9.77
2018-12-09T03:47:28.828Z,9.74
2018-12-09T03:48:28.822Z,9.62
2018-12-09T03:49:28.807Z,9.62
2018-12-09T03:50:28.800Z,9.65
2018-12-09T03:51:28.791Z,9.58
2018-12-09T03:52:28.783Z,9.58
2018-12-09T03:53:28.783Z,9.56
2018-12-09T03:54:28.772Z,9.67
2018-12-09T03:55:28.763Z,9.55
2018-12-09T03:56:28.754Z,9.52
2018-12-09T03:57:28.741Z,9.67
2018-12-09T03:58:28.732Z,9.60
2018-12-09T03:59:28.725Z,9.65
2018-12-09T04:00:28.716Z,9.62
2018-12-09T04:01:28.711Z,9.63
2018-12-09T04:02:28.703Z,9.62
2018-12-09T04:03:28.690Z,9.62
2018-12-09T04:04:28.681Z,9.59
2018-12-09T04:05:28.677Z,9.65
2018-12-09T04:06:28.676Z,9.62
2018-12-09T04:07:28.663Z,9.60
2018-12-09T04:08:28.665Z,9.58
2018-12-09T04:09:28.640Z,9.59
2018-12-09T04:10:28.631Z,9.62
2018-12-09T04:11:28.625Z,9.67
2018-12-09T04:12:28.614Z,9.63
2018-12-09T04:13:28.612Z,9.58
2018-12-09T04:14:28.604Z,9.60
2018-12-09T04:15:28.595Z,9.59
2018-12-09T04:16:28.586Z,9.59
2018-12-09T04:17:28.575Z,9.62
2018-12-09T04:18:28.566Z,9.60
2018-12-09T04:19:28.561Z,9.70
2018-12-09T04:20:28.553Z,9.63
2018-12-09T04:21:28.540Z,9.63
2018-12-09T04:22:28.537Z,9.56
2018-12-09T04:23:28.525Z,9.59
2018-12-09T04:24:28.515Z,9.62
2018-12-09T04:25:28.512Z,9.60
2018-12-09T04:26:28.518Z,9.59
2018-12-09T04:27:28.497Z,9.56
2018-12-09T04:28:28.488Z,9.56
2018-12-09T04:29:28.476Z,9.56
2018-12-09T04:30:28.484Z,9.49
2018-12-09T04:31:28.459Z,9.50
2018-12-09T04:32:28.451Z,9.56
2018-12-09T04:33:28.447Z,9.52
2018-12-09T04:34:28.439Z,9.50
2018-12-09T04:35:28.527Z,9.53
2018-12-09T04:36:28.420Z,9.59
2018-12-09T04:37:28.425Z,9.65
2018-12-09T04:38:28.411Z,9.59
2018-12-09T04:39:28.399Z,9.65
2018-12-09T04:40:28.408Z,9.55
2018-12-09T04:41:28.377Z,9.59
2018-12-09T04:42:28.378Z,9.58
2018-12-09T04:43:28.360Z,9.60
2018-12-09T04:44:28.353Z,9.60
2018-12-09T04:45:28.353Z,9.62
2018-12-09T04:46:28.341Z,9.70
2018-12-09T04:47:28.332Z,9.65
2018-12-09T04:48:28.326Z,9.65
2018-12-09T04:49:28.315Z,9.68
2018-12-09T04:50:28.304Z,9.68
2018-12-09T04:51:28.300Z,9.63
2018-12-09T04:52:28.292Z,9.62
2018-12-09T04:53:28.279Z,9.68
2018-12-09T04:54:28.272Z,9.70
2018-12-09T04:55:28.264Z,9.60
2018-12-09T04:56:28.257Z,9.70
2018-12-09T04:57:28.251Z,9.70
2018-12-09T04:58:28.244Z,9.70
2018-12-09T04:59:28.235Z,9.70
2018-12-09T05:00:28.227Z,9.63
2018-12-09T05:01:28.230Z,9.78
2018-12-09T05:02:28.206Z,9.65
2018-12-09T05:03:28.198Z,9.67
2018-12-09T05:04:28.189Z,9.63
2018-12-09T05:05:28.188Z,9.71
2018-12-09T05:06:28.183Z,9.63
2018-12-09T05:07:28.166Z,9.62
2018-12-09T05:08:28.157Z,9.62
2018-12-09T05:09:28.156Z,9.71
2018-12-09T05:10:28.145Z,9.74
2018-12-09T05:11:28.139Z,9.67
2018-12-09T05:12:28.129Z,9.70
2018-12-09T05:13:28.117Z,9.67
2018-12-09T05:14:28.110Z,9.65
2018-12-09T05:15:28.102Z,9.67
2018-12-09T05:16:28.093Z,9.63
2018-12-09T05:17:28.088Z,9.70
2018-12-09T05:18:28.080Z,9.62
2018-12-09T05:19:28.075Z,9.59
2018-12-09T05:20:28.066Z,9.65
2018-12-09T05:21:28.053Z,9.70
2018-12-09T05:22:28.045Z,9.65
2018-12-09T05:23:28.042Z,9.62
2018-12-09T05:24:28.033Z,9.80
2018-12-09T05:25:28.019Z,9.80
2018-12-09T05:26:28.013Z,9.71
2018-12-09T05:27:28.004Z,9.71
2018-12-09T05:28:27.994Z,9.75
2018-12-09T05:29:27.992Z,9.74
2018-12-09T05:30:27.988Z,9.80
2018-12-09T05:31:27.976Z,9.77
2018-12-09T05:32:27.967Z,9.78
2018-12-09T05:33:27.955Z,9.77
2018-12-09T05:34:27.949Z,9.74
2018-12-09T05:35:27.940Z,9.73
2018-12-09T05:36:27.930Z,9.77
2018-12-09T05:37:27.928Z,9.83
2018-12-09T05:38:27.919Z,9.77
2018-12-09T05:39:27.907Z,9.83
2018-12-09T05:40:27.898Z,9.85
2018-12-09T05:41:27.896Z,9.73
2018-12-09T05:42:27.887Z,9.75
2018-12-09T05:43:27.878Z,9.77
2018-12-09T05:44:27.871Z,9.73
2018-12-09T05:45:27.858Z,9.81
2018-12-09T05:46:27.851Z,9.74
2018-12-09T05:47:27.844Z,9.75
2018-12-09T05:48:27.834Z,9.70
2018-12-09T05:49:27.830Z,9.71
2018-12-09T05:50:27.822Z,9.80
2018-12-09T05:51:27.815Z,9.71
2018-12-09T05:52:27.807Z,9.80
2018-12-09T05:53:27.795Z,9.73
2018-12-09T05:54:27.787Z,9.78
2018-12-09T05:55:27.783Z,9.78
2018-12-09T05:56:27.773Z,9.73
2018-12-09T05:57:27.763Z,9.80
2018-12-09T05:58:27.753Z,9.78
2018-12-09T05:59:27.746Z,9.80
2018-12-09T06:00:27.737Z,9.74
2018-12-09T06:01:27.733Z,9.81
2018-12-09T06:02:27.725Z,9.77
2018-12-09T06:03:27.720Z,9.80
2018-12-09T06:04:27.708Z,9.80
2018-12-09T06:05:27.747Z,9.77
2018-12-09T06:06:27.689Z,9.73
2018-12-09T06:07:27.684Z,9.74
2018-12-09T06:08:27.673Z,9.77
2018-12-09T06:09:27.670Z,9.75
2018-12-09T06:10:27.675Z,9.78
2018-12-09T06:11:27.649Z,9.73
2018-12-09T06:12:27.642Z,9.73
2018-12-09T06:13:27.637Z,9.77
2018-12-09T06:14:27.629Z,9.80
2018-12-09T06:15:27.622Z,9.73
2018-12-09T06:16:27.612Z,9.78
2018-12-09T06:17:27.600Z,9.75
2018-12-09T06:18:27.592Z,9.77
2018-12-09T06:19:27.587Z,9.77
2018-12-09T06:20:27.577Z,9.77
2018-12-09T06:21:27.573Z,9.75
2018-12-09T06:22:27.564Z,9.74
2018-12-09T06:23:27.556Z,9.73
2018-12-09T06:24:27.550Z,9.85
2018-12-09T06:25:27.536Z,9.74
2018-12-09T06:26:27.528Z,9.77
2018-12-09T06:27:27.525Z,9.73
2018-12-09T06:28:27.515Z,9.81
2018-12-09T06:29:27.503Z,9.70
2018-12-09T06:30:27.496Z,9.74
2018-12-09T06:31:27.487Z,9.71
2018-12-09T06:32:27.479Z,9.74
2018-12-09T06:33:27.476Z,9.75
2018-12-09T06:34:27.468Z,9.70
2018-12-09T06:35:27.461Z,9.73
2018-12-09T06:36:27.451Z,9.70
2018-12-09T06:37:27.438Z,9.62
2018-12-09T06:38:27.430Z,9.67
2018-12-09T06:39:27.428Z,9.65
2018-12-09T06:40:27.414Z,9.65
2018-12-09T06:41:27.412Z,9.67
2018-12-09T06:42:27.403Z,9.65
2018-12-09T06:43:27.391Z,9.62
2018-12-09T06:44:27.382Z,9.59
2018-12-09T06:45:27.379Z,9.63
2018-12-09T06:46:27.371Z,9.65
2018-12-09T06:47:27.364Z,9.71
2018-12-09T06:48:27.354Z,9.73
2018-12-09T06:49:27.342Z,9.75
2018-12-09T06:50:27.334Z,9.63
2018-12-09T06:51:27.326Z,9.67
2018-12-09T06:52:27.319Z,9.70
2018-12-09T06:53:27.316Z,9.75
2018-12-09T06:54:27.307Z,9.73
2018-12-09T06:55:27.298Z,9.73
2018-12-09T06:56:27.293Z,9.73
2018-12-09T06:57:27.278Z,9.77
2018-12-09T06:58:27.270Z,9.74
2018-12-09T06:59:27.267Z,9.83
2018-12-09T07:00:27.257Z,9.73
2018-12-09T07:01:27.247Z,9.74
2018-12-09T07:02:27.238Z,9.71
2018-12-09T07:03:27.231Z,9.77
2018-12-09T07:04:27.222Z,9.78
2018-12-09T07:05:27.222Z,9.74
2018-12-09T07:06:27.211Z,9.85
2018-12-09T07:07:27.683Z,9.81
2018-12-09T07:08:27.194Z,9.80
2018-12-09T07:09:27.182Z,9.86
2018-12-09T07:10:27.173Z,9.78
2018-12-09T07:11:27.220Z,9.85
2018-12-09T07:12:27.156Z,9.89
2018-12-09T07:13:27.153Z,9.85
2018-12-09T07:14:27.146Z,9.81
2018-12-09T07:15:27.133Z,9.83
2018-12-09T07:16:27.124Z,9.85
2018-12-09T07:17:27.122Z,9.85
2018-12-09T07:18:27.112Z,9.88
2018-12-09T07:19:27.105Z,9.83
2018-12-09T07:20:27.097Z,9.80
2018-12-09T07:21:27.084Z,9.74
2018-12-09T07:22:27.076Z,9.77
2018-12-09T07:23:27.068Z,9.75
2018-12-09T07:24:27.062Z,9.78
2018-12-09T07:25:27.056Z,9.80
2018-12-09T07:26:27.048Z,9.83
2018-12-09T07:27:27.041Z,9.88
2018-12-09T07:28:27.033Z,9.77
2018-12-09T07:29:27.020Z,9.89
2018-12-09T07:30:27.012Z,9.85
2018-12-09T07:31:27.010Z,9.89
2018-12-09T07:32:27.000Z,9.92
2018-12-09T07:33:26.988Z,9.92
2018-12-09T07:34:26.982Z,9.91
2018-12-09T07:35:26.972Z,9.96
2018-12-09T07:36:26.964Z,9.99
2018-12-09T07:37:26.960Z,10.04
2018-12-09T07:38:26.953Z,9.96
2018-12-09T07:39:26.947Z,10.04
2018-12-09T07:40:26.937Z,10.02
2018-12-09T07:41:26.925Z,10.10
2018-12-09T07:42:26.917Z,10.09
2018-12-09T07:43:26.908Z,10.09
2018-12-09T07:44:26.902Z,10.04
2018-12-09T07:45:26.941Z,10.06
2018-12-09T07:46:26.890Z,10.13
2018-12-09T07:47:26.876Z,10.11
2018-12-09T07:48:26.867Z,10.10
2018-12-09T07:49:26.865Z,10.17
2018-12-09T07:50:26.857Z,10.24
2018-12-09T07:51:26.849Z,10.11
2018-12-09T07:52:26.840Z,10.14
2018-12-09T07:53:26.830Z,10.17
2018-12-09T07:54:26.824Z,10.14
2018-12-09T07:55:26.815Z,10.26
2018-12-09T07:56:26.804Z,10.22
2018-12-09T07:57:26.804Z,10.22
2018-12-09T07:58:26.794Z,10.17
2018-12-09T07:59:26.788Z,10.20
2018-12-09T08:00:26.778Z,10.24
2018-12-09T08:01:26.769Z,10.22
2018-12-09T08:02:26.758Z,10.31
2018-12-09T08:03:26.757Z,10.24
2018-12-09T08:04:26.749Z,10.26
2018-12-09T08:05:26.735Z,10.26
2018-12-09T08:06:26.728Z,10.20
2018-12-09T08:07:26.721Z,10.24
2018-12-09T08:08:26.712Z,10.29
2018-12-09T08:09:26.709Z,10.26
2018-12-09T08:10:26.701Z,10.26
2018-12-09T08:11:26.694Z,10.35
2018-12-09T08:12:26.687Z,10.32
2018-12-09T08:13:26.673Z,10.38
2018-12-09T08:14:26.666Z,10.43
2018-12-09T08:15:26.658Z,10.38
2018-12-09T08:16:26.650Z,10.47
2018-12-09T08:17:26.647Z,10.43
2018-12-09T08:18:26.643Z,10.43
2018-12-09T08:19:26.627Z,10.42
2018-12-09T08:20:26.619Z,10.51
2018-12-09T08:21:26.617Z,10.44
2018-12-09T08:22:26.611Z,10.49
2018-12-09T08:23:26.602Z,10.58
2018-12-09T08:24:26.600Z,10.57
2018-12-09T08:25:26.581Z,10.63
2018-12-09T08:26:26.574Z,10.60
2018-12-09T08:27:26.567Z,10.68
2018-12-09T08:28:26.558Z,10.66
2018-12-09T08:29:26.557Z,10.65
2018-12-09T08:30:26.552Z,10.70
2018-12-09T08:31:26.544Z,10.70
2018-12-09T08:32:26.533Z,10.68
2018-12-09T08:33:26.523Z,10.63
2018-12-09T08:34:26.517Z,10.68
2018-12-09T08:35:26.512Z,10.62
2018-12-09T08:36:26.507Z,10.65
2018-12-09T08:37:26.492Z,10.65
2018-12-09T08:38:26.484Z,10.65
2018-12-09T08:39:26.477Z,10.66
2018-12-09T08:40:26.472Z,10.66
2018-12-09T08:41:26.467Z,10.73
2018-12-09T08:42:26.461Z,10.68
2018-12-09T08:43:26.452Z,10.62
2018-12-09T08:44:26.444Z,10.51
2018-12-09T08:45:26.433Z,10.60
2018-12-09T08:46:26.425Z,10.54
2018-12-09T08:47:26.419Z,10.66
2018-12-09T08:48:26.410Z,10.58
2018-12-09T08:49:26.408Z,10.57
2018-12-09T08:50:26.400Z,10.57
2018-12-09T08:51:26.388Z,10.55
2018-12-09T08:52:26.379Z,10.66
2018-12-09T08:53:26.377Z,10.68
2018-12-09T08:54:26.370Z,10.63
2018-12-09T08:55:26.364Z,10.62
2018-12-09T08:56:26.355Z,10.57
2018-12-09T08:57:26.343Z,10.65
2018-12-09T08:58:26.336Z,10.63
2018-12-09T08:59:26.328Z,10.60
2018-12-09T09:00:26.321Z,10.72
2018-12-09T09:01:26.319Z,10.65
2018-12-09T09:02:26.312Z,10.68
2018-12-09T09:03:26.305Z,10.65
2018-12-09T09:04:26.296Z,10.66
2018-12-09T09:05:26.288Z,10.62
2018-12-09T09:06:26.277Z,10.65
2018-12-09T09:07:26.274Z,10.66
2018-12-09T09:08:26.266Z,10.65
2018-12-09T09:09:26.256Z,10.68
2018-12-09T09:10:26.248Z,10.68
2018-12-09T09:11:26.241Z,10.62
2018-12-09T09:12:26.243Z,10.62
2018-12-09T09:13:26.235Z,10.55
2018-12-09T09:14:26.224Z,10.66
2018-12-09T09:15:26.223Z,10.55
2018-12-09T09:16:26.209Z,10.65
2018-12-09T09:17:26.197Z,10.69
2018-12-09T09:18:26.189Z,10.62
2018-12-09T09:19:26.182Z,10.62
2018-12-09T09:20:26.174Z,10.68
2018-12-09T09:21:26.172Z,10.57
2018-12-09T09:22:26.164Z,10.60
2018-12-09T09:23:26.154Z,10.66
2018-12-09T09:24:26.146Z,10.69
2018-12-09T09:25:26.142Z,10.80
2018-12-09T09:26:26.135Z,10.86
2018-12-09T09:27:26.130Z,10.88
2018-12-09T09:28:26.121Z,10.95
2018-12-09T09:29:26.111Z,10.95
2018-12-09T09:30:26.102Z,10.99
2018-12-09T09:31:26.095Z,11.08
2018-12-09T09:32:26.088Z,11.06
2018-12-09T09:33:26.084Z,11.09
2018-12-09T09:34:26.079Z,11.09
2018-12-09T09:35:26.074Z,11.17
2018-12-09T09:36:26.064Z,11.20
2018-12-09T09:37:26.053Z,11.09
2018-12-09T09:38:26.046Z,11.02
2018-12-09T09:39:26.044Z,11.08
2018-12-09T09:40:26.036Z,11.17
2018-12-09T09:41:26.026Z,11.08
2018-12-09T09:42:26.019Z,11.09
2018-12-09T09:43:26.012Z,11.05
2018-12-09T09:44:26.005Z,11.06
2018-12-09T09:45:26.001Z,11.06
2018-12-09T09:46:25.995Z,11.01
2018-12-09T09:47:25.989Z,11.03
2018-12-09T09:48:25.982Z,10.93
2018-12-09T09:49:25.969Z,10.87
2018-12-09T09:50:25.967Z,10.80
2018-12-09T09:51:25.957Z,10.73
2018-12-09T09:52:25.950Z,10.80
2018-12-09T09:53:25.946Z,10.68
2018-12-09T09:54:25.941Z,10.60
2018-12-09T09:55:25.928Z,10.65
2018-12-09T09:56:25.921Z,10.54
2018-12-09T09:57:25.922Z,10.52
2018-12-09T09:58:25.912Z,10.47
2018-12-09T09:59:25.905Z,10.46
2018-12-09T10:00:25.900Z,10.44
2018-12-09T10:01:25.886Z,10.44
2018-12-09T10:02:25.878Z,10.29
2018-12-09T10:03:26.294Z,10.39
2018-12-09T10:04:25.864Z,10.42
2018-12-09T10:05:25.862Z,10.34
2018-12-09T10:06:25.855Z,10.31
2018-12-09T10:07:25.847Z,10.35
2018-12-09T10:08:25.840Z,10.34
2018-12-09T10:09:25.828Z,10.35
2018-12-09T10:10:25.824Z,10.35
2018-12-09T10:11:25.819Z,10.46
2018-12-09T10:12:25.812Z,10.36
2018-12-09T10:13:25.799Z,10.42
2018-12-09T10:14:25.791Z,10.47
2018-12-09T10:15:25.784Z,10.47
2018-12-09T10:16:25.776Z,10.52
2018-12-09T10:17:25.773Z,10.44
2018-12-09T10:18:25.769Z,10.43
2018-12-09T10:19:25.763Z,10.49
2018-12-09T10:20:25.754Z,10.54
2018-12-09T10:21:25.741Z,10.51
2018-12-09T10:22:25.736Z,10.57
2018-12-09T10:23:25.729Z,10.49
2018-12-09T10:24:25.719Z,10.58
2018-12-09T10:25:25.717Z,10.57
2018-12-09T10:26:25.709Z,10.51
2018-12-09T10:27:25.702Z,10.46
2018-12-09T10:28:25.691Z,10.52
2018-12-09T10:29:25.688Z,10.58
2018-12-09T10:30:25.681Z,10.63
2018-12-09T10:31:25.675Z,10.60
2018-12-09T10:32:25.665Z,10.73
2018-12-09T10:33:25.659Z,10.73
2018-12-09T10:34:25.648Z,10.69
2018-12-09T10:35:25.640Z,10.69
2018-12-09T10:36:25.633Z,10.93
2018-12-09T10:37:25.631Z,10.84
2018-12-09T10:38:25.626Z,10.86
2018-12-09T10:39:25.616Z,10.91
2018-12-09T10:40:25.609Z,10.95
2018-12-09T10:41:25.599Z,11.01
2018-12-09T10:42:25.595Z,11.03
2018-12-09T10:43:25.590Z,10.99
2018-12-09T10:44:25.582Z,10.99
2018-12-09T10:45:25.569Z,10.99
2018-12-09T10:46:25.563Z,11.01
2018-12-09T10:47:25.557Z,11.08
2018-12-09T10:48:25.549Z,11.11
2018-12-09T10:49:25.547Z,11.03
2018-12-09T10:50:25.541Z,11.09
2018-12-09T10:51:25.534Z,11.12
2018-12-09T10:52:25.577Z,11.05
2018-12-09T10:53:25.516Z,11.06
2018-12-09T10:54:25.508Z,11.16
2018-12-09T10:55:25.503Z,11.16
2018-12-09T10:56:25.494Z,11.13
2018-12-09T10:57:25.493Z,11.16
2018-12-09T10:58:25.489Z,11.23
2018-12-09T10:59:25.476Z,11.35
2018-12-09T11:00:25.469Z,11.38
2018-12-09T11:01:25.470Z,11.49
2018-12-09T11:02:25.463Z,11.59
2018-12-09T11:03:25.455Z,11.72
2018-12-09T11:04:25.452Z,11.98
2018-12-09T11:05:25.435Z,12.23
2018-12-09T11:06:25.431Z,12.92
2018-12-09T11:07:25.422Z,13.35
2018-12-09T11:08:25.417Z,14.23
2018-12-09T11:09:25.425Z,14.29
2018-12-09T11:10:25.410Z,14.83
2018-12-09T11:11:25.405Z,14.63
2018-12-09T11:12:25.400Z,14.27
2018-12-09T11:13:25.389Z,13.94
2018-12-09T11:14:25.385Z,13.96
2018-12-09T11:15:25.387Z,13.86
2018-12-09T11:16:25.381Z,14.13
2018-12-09T11:17:25.373Z,14.30
2018-12-09T11:18:25.372Z,14.31
2018-12-09T11:19:25.364Z,14.54
2018-12-09T11:20:25.361Z,14.52
2018-12-09T11:21:30.556Z,14.11
2018-12-09T11:22:25.363Z,13.93
2018-12-09T11:23:25.357Z,13.79
2018-12-09T11:24:25.351Z,13.48
2018-12-09T11:25:25.340Z,13.31
2018-12-09T11:26:25.337Z,13.36
2018-12-09T11:27:25.334Z,13.19
2018-12-09T11:28:25.329Z,12.88
2018-12-09T11:29:25.330Z,12.66
2018-12-09T11:30:25.327Z,12.55
2018-12-09T11:31:25.317Z,12.49
2018-12-09T11:32:25.316Z,12.18
2018-12-09T11:33:25.314Z,12.21
2018-12-09T11:34:25.308Z,12.11
2018-12-09T11:35:25.308Z,12.15
2018-12-09T11:36:25.301Z,12.12
2018-12-09T11:37:25.298Z,12.18
2018-12-09T11:38:25.286Z,11.97
2018-12-09T11:39:25.289Z,12.08
2018-12-09T11:40:25.275Z,12.04
2018-12-09T11:41:25.278Z,12.07
2018-12-09T11:42:25.274Z,11.96
2018-12-09T11:43:25.272Z,11.94
2018-12-09T11:44:25.261Z,11.88
2018-12-09T11:45:25.252Z,11.85
2018-12-09T11:46:25.257Z,11.79
2018-12-09T11:47:25.247Z,11.74
2018-12-09T11:48:25.240Z,11.63
2018-12-09T11:49:25.230Z,11.51
2018-12-09T11:50:25.225Z,11.30
2018-12-09T11:51:25.219Z,11.30
2018-12-09T11:52:25.211Z,11.09
2018-12-09T11:53:25.220Z,11.01
2018-12-09T11:54:25.211Z,10.81
2018-12-09T11:55:25.206Z,10.80
2018-12-09T11:56:25.197Z,10.78
2018-12-09T11:57:25.181Z,10.68
2018-12-09T11:58:25.175Z,10.60
2018-12-09T11:59:25.173Z,10.62
2018-12-09T12:00:25.162Z,10.47
2018-12-09T12:01:25.161Z,10.43
2018-12-09T12:02:25.167Z,10.57
2018-12-09T12:03:25.144Z,10.44
2018-12-09T12:04:25.137Z,10.49
2018-12-09T12:05:25.135Z,10.49
2018-12-09T12:06:25.134Z,10.38
2018-12-09T12:07:25.122Z,10.31
2018-12-09T12:08:25.114Z,10.24
2018-12-09T12:09:25.103Z,10.20
2018-12-09T12:10:25.097Z,10.24
2018-12-09T12:11:25.090Z,10.29
2018-12-09T12:12:25.082Z,10.26
2018-12-09T12:13:25.083Z,10.26
2018-12-09T12:14:25.078Z,10.38
2018-12-09T12:15:25.085Z,10.34
2018-12-09T12:16:25.084Z,10.34
2018-12-09T12:17:25.063Z,10.46
2018-12-09T12:18:25.053Z,10.49
2018-12-09T12:19:25.046Z,10.46
2018-12-09T12:20:25.033Z,10.46
2018-12-09T12:21:25.019Z,10.57
2018-12-09T12:22:25.014Z,10.58
2018-12-09T12:23:25.006Z,10.62
2018-12-09T12:24:25.018Z,10.63
2018-12-09T12:25:25.004Z,10.75
2018-12-09T12:26:25.068Z,10.78
2018-12-09T12:27:24.996Z,10.78
2018-12-09T12:28:24.975Z,10.76
2018-12-09T12:29:24.965Z,10.86
2018-12-09T12:30:26.163Z,10.84
2018-12-09T12:31:24.951Z,10.86
2018-12-09T12:32:24.943Z,10.83
2018-12-09T12:33:24.987Z,10.86
2018-12-09T12:34:24.955Z,10.95
2018-12-09T12:35:24.923Z,10.98
2018-12-09T12:36:24.929Z,10.93
2018-12-09T12:37:24.930Z,10.99
2018-12-09T12:38:24.907Z,11.05
2018-12-09T12:39:24.903Z,11.11
2018-12-09T12:40:24.895Z,11.05
2018-12-09T12:41:24.882Z,11.03
2018-12-09T12:42:24.880Z,10.95
2018-12-09T12:43:24.869Z,11.01
2018-12-09T12:44:24.863Z,10.98
2018-12-09T12:45:24.859Z,10.87
2018-12-09T12:46:24.854Z,10.87
2018-12-09T12:47:24.852Z,10.90
2018-12-09T12:48:24.841Z,10.72
2018-12-09T12:49:24.835Z,10.70
2018-12-09T12:50:24.822Z,10.72
2018-12-09T12:51:24.820Z,10.73
2018-12-09T12:52:24.813Z,10.78
2018-12-09T12:53:24.814Z,10.86
2018-12-09T12:54:24.795Z,10.84
2018-12-09T12:55:24.790Z,10.81
2018-12-09T12:56:24.785Z,10.83
2018-12-09T12:57:24.792Z,10.88
2018-12-09T12:58:24.773Z,10.81
2018-12-09T12:59:24.769Z,10.80
2018-12-09T13:00:24.758Z,10.78
2018-12-09T13:01:24.755Z,10.81
2018-12-09T13:02:24.742Z,10.80
2018-12-09T13:03:24.734Z,10.70
2018-12-09T13:04:24.729Z,10.84